createdAt,value
2023-04-28T00:00:42.684Z,100672.80
2023-04-28T00:03:19.920Z,100669.36
2023-04-28T00:05:49.688Z,100670.20
2023-04-28T00:08:18.130Z,100675.98
2023-04-28T00:10:46.511Z,100677.80
2023-04-28T00:13:14.840Z,100676.14
2023-04-28T00:15:43.222Z,100676.21
2023-04-28T00:18:11.606Z,100678.37
2023-04-28T00:20:39.969Z,100672.42
2023-04-28T00:23:08.335Z,100668.54
2023-04-28T00:25:36.702Z,100671.13
2023-04-28T00:28:05.109Z,100670.42
2023-04-28T00:30:33.448Z,100670.27
2023-04-28T00:33:01.843Z,100665.98
2023-04-28T00:35:30.410Z,100662.02
2023-04-28T00:37:58.835Z,100661.64
2023-04-28T00:40:39.804Z,100659.55
2023-04-28T00:43:08.203Z,100658.41
2023-04-28T00:45:36.698Z,100657.83
2023-04-28T00:48:05.607Z,100660.23
2023-04-28T00:50:33.955Z,100656.16
2023-04-28T00:53:02.902Z,100651.44
2023-04-28T00:55:35.146Z,100652.06
2023-04-28T00:58:04.837Z,100658.69
2023-04-28T01:00:34.233Z,100655.80
2023-04-28T01:03:03.119Z,100649.23
2023-04-28T01:05:32.046Z,100648.28
2023-04-28T01:08:00.682Z,100645.98
2023-04-28T01:10:29.005Z,100643.98
2023-04-28T01:12:57.436Z,100642.58
2023-04-28T01:15:26.886Z,100639.95
2023-04-28T01:17:55.651Z,100638.86
2023-04-28T01:20:24.265Z,100638.65
2023-04-28T01:22:52.644Z,100640.43
2023-04-28T01:25:21.194Z,100639.40
2023-04-28T01:27:49.516Z,100637.84
2023-04-28T01:30:17.854Z,100632.92
2023-04-28T01:32:46.237Z,100630.31
2023-04-28T01:35:14.674Z,100629.27
2023-04-28T01:37:43.042Z,100627.71
2023-04-28T01:40:12.228Z,100623.87
2023-04-28T01:42:40.666Z,100624.16
2023-04-28T01:45:10.097Z,100619.73
2023-04-28T01:47:38.967Z,100612.71
2023-04-28T01:50:07.888Z,100614.95
2023-04-28T01:52:36.321Z,100615.73
2023-04-28T01:55:05.682Z,100612.58
2023-04-28T01:57:35.794Z,100610.31
2023-04-28T02:00:05.152Z,100610.83
2023-04-28T02:02:33.724Z,100611.59
2023-04-28T02:05:02.332Z,100616.13
2023-04-28T02:07:30.676Z,100617.63
2023-04-28T02:09:58.964Z,100621.02
2023-04-28T02:12:27.347Z,100620.39
2023-04-28T02:14:55.676Z,100621.00
2023-04-28T02:17:24.101Z,100616.85
2023-04-28T02:19:58.590Z,100618.14
2023-04-28T02:22:26.919Z,100619.77
2023-04-28T02:24:55.386Z,100617.73
2023-04-28T02:27:23.719Z,100613.04
2023-04-28T02:29:52.773Z,100610.76
2023-04-28T02:32:21.183Z,100605.61
2023-04-28T02:34:54.751Z,100607.05
2023-04-28T02:37:23.465Z,100606.25
2023-04-28T02:39:51.744Z,100603.13
2023-04-28T02:42:20.070Z,100596.23
2023-04-28T02:44:48.408Z,100596.67
2023-04-28T02:47:17.042Z,100600.02
2023-04-28T02:49:45.871Z,100598.17
2023-04-28T02:52:14.374Z,100594.73
2023-04-28T02:54:42.885Z,100590.67
2023-04-28T02:57:11.241Z,100589.02
2023-04-28T02:59:39.788Z,100587.02
2023-04-28T03:02:09.377Z,100590.02
2023-04-28T03:04:37.754Z,100593.20
2023-04-28T03:07:06.093Z,100591.26
2023-04-28T03:09:34.937Z,100591.44
2023-04-28T03:12:03.544Z,100590.98
2023-04-28T03:14:31.923Z,100591.05
2023-04-28T03:17:00.385Z,100591.15
2023-04-28T03:19:29.038Z,100599.20
2023-04-28T03:21:57.342Z,100599.62
2023-04-28T03:24:25.808Z,100600.27
2023-04-28T03:26:54.132Z,100600.89
2023-04-28T03:29:24.449Z,100601.15
2023-04-28T03:31:53.088Z,100602.61
2023-04-28T03:34:21.391Z,100601.48
2023-04-28T03:36:49.718Z,100602.23
2023-04-28T03:39:18.479Z,100607.16
2023-04-28T03:41:46.846Z,100608.89
2023-04-28T03:44:15.332Z,100603.56
2023-04-28T03:46:43.823Z,100598.06
2023-04-28T03:49:12.161Z,100588.89
2023-04-28T03:51:41.049Z,100590.77
2023-04-28T03:54:09.378Z,100588.47
2023-04-28T03:56:37.876Z,100584.68
2023-04-28T03:59:06.232Z,100590.66
2023-04-28T04:01:34.564Z,100589.68
2023-04-28T04:04:03.406Z,100591.41
2023-04-28T04:06:32.496Z,100589.30
2023-04-28T04:09:00.852Z,100587.36
2023-04-28T04:11:29.146Z,100590.59
2023-04-28T04:13:57.487Z,100587.55
2023-04-28T04:16:26.160Z,100583.45
2023-04-28T04:18:54.538Z,100587.43
2023-04-28T04:21:22.884Z,100587.98
2023-04-28T04:23:51.362Z,100587.82
2023-04-28T04:26:19.706Z,100585.45
2023-04-28T04:28:48.066Z,100583.55
2023-04-28T04:31:16.602Z,100581.95
2023-04-28T04:33:45.538Z,100578.56
2023-04-28T04:36:13.947Z,100580.17
2023-04-28T04:38:42.357Z,100578.64
2023-04-28T04:41:10.682Z,100583.08
2023-04-28T04:43:39.188Z,100587.90
2023-04-28T04:46:07.810Z,100588.33
2023-04-28T04:48:36.295Z,100583.77
2023-04-28T04:51:04.805Z,100583.77
2023-04-28T04:53:33.202Z,100581.30
2023-04-28T04:56:01.688Z,100579.33
2023-04-28T04:58:30.114Z,100577.96
2023-04-28T05:00:58.687Z,100574.88
2023-04-28T05:03:27.291Z,100581.23
2023-04-28T05:05:56.618Z,100578.17
2023-04-28T05:08:28.037Z,100575.63
2023-04-28T05:10:58.710Z,100578.58
2023-04-28T05:13:27.809Z,100574.61
2023-04-28T05:15:57.535Z,100577.98
2023-04-28T05:18:59.817Z,100574.09
2023-04-28T05:21:33.203Z,100572.13
2023-04-28T05:24:07.521Z,100571.66
2023-04-28T05:26:42.251Z,100573.54
2023-04-28T05:29:23.348Z,100576.08
2023-04-28T05:32:18.166Z,100579.17
2023-04-28T05:35:44.432Z,100574.61
2023-04-28T05:38:27.005Z,100570.26
2023-04-28T05:41:03.561Z,100574.48
2023-04-28T05:43:36.361Z,100577.01
2023-04-28T05:46:28.455Z,100570.92
2023-04-28T05:49:41.583Z,100572.69
2023-04-28T05:52:40.092Z,100573.88
2023-04-28T05:55:43.551Z,100565.92
2023-04-28T05:58:12.102Z,100563.55
2023-04-28T06:00:40.837Z,100559.36
2023-04-28T06:03:15.130Z,100560.24
2023-04-28T06:05:44.042Z,100561.70
2023-04-28T06:08:37.270Z,100557.91
2023-04-28T06:11:06.728Z,100554.45
2023-04-28T06:13:35.099Z,100550.09
2023-04-28T06:16:04.118Z,100549.21
2023-04-28T06:18:32.982Z,100548.52
2023-04-28T06:21:01.693Z,100543.54
2023-04-28T06:23:30.081Z,100540.51
2023-04-28T06:25:58.487Z,100543.05
2023-04-28T06:28:26.892Z,100541.33
2023-04-28T06:30:55.695Z,100537.20
2023-04-28T06:33:24.071Z,100540.40
2023-04-28T06:35:53.551Z,100535.41
2023-04-28T06:38:21.918Z,100533.40
2023-04-28T06:40:50.484Z,100531.81
2023-04-28T06:43:18.798Z,100534.56
2023-04-28T06:45:48.426Z,100537.20
2023-04-28T06:48:17.312Z,100534.68
2023-04-28T06:50:46.398Z,100531.06
2023-04-28T06:53:14.769Z,100528.16
2023-04-28T06:55:43.486Z,100529.58
2023-04-28T06:58:11.893Z,100528.29
2023-04-28T07:00:40.308Z,100532.86
2023-04-28T07:03:09.336Z,100525.05
2023-04-28T07:05:38.856Z,100523.52
2023-04-28T07:08:07.232Z,100524.67
2023-04-28T07:10:35.682Z,100524.19
2023-04-28T07:13:04.124Z,100522.23
2023-04-28T07:15:32.640Z,100516.64
2023-04-28T07:18:01.773Z,100512.95
2023-04-28T07:20:30.144Z,100512.48
2023-04-28T07:22:58.701Z,100511.03
2023-04-28T07:25:27.130Z,100503.49
2023-04-28T07:27:55.613Z,100498.75
2023-04-28T07:30:29.409Z,100496.30
2023-04-28T07:32:59.536Z,100497.14
2023-04-28T07:35:28.540Z,100494.70
2023-04-28T07:37:57.962Z,100487.02
2023-04-28T07:40:26.474Z,100483.27
2023-04-28T07:42:54.815Z,100482.65
2023-04-28T07:45:26.344Z,100479.79
2023-04-28T07:47:54.738Z,100482.73
2023-04-28T07:50:38.376Z,100479.80
2023-04-28T07:53:06.770Z,100481.55
2023-04-28T07:55:38.295Z,100481.10
2023-04-28T07:58:09.262Z,100479.98
2023-04-28T08:00:40.890Z,100472.74
2023-04-28T08:03:09.907Z,100473.81
2023-04-28T08:05:46.554Z,100471.73
2023-04-28T08:08:15.109Z,100471.59
2023-04-28T08:10:44.005Z,100468.98
2023-04-28T08:13:16.674Z,100467.61
2023-04-28T08:15:49.601Z,100465.41
2023-04-28T08:18:18.172Z,100466.27
2023-04-28T08:20:46.669Z,100458.90
2023-04-28T08:23:15.038Z,100457.36
2023-04-28T08:25:43.522Z,100455.48
2023-04-28T08:28:11.911Z,100451.69
2023-04-28T08:30:40.497Z,100453.79
2023-04-28T08:33:08.887Z,100449.88
2023-04-28T08:35:37.374Z,100449.05
2023-04-28T08:38:08.343Z,100444.36
2023-04-28T08:40:42.913Z,100444.98
2023-04-28T08:43:14.209Z,100445.31
2023-04-28T08:45:52.249Z,100440.98
2023-04-28T08:48:23.046Z,100435.77
2023-04-28T08:50:54.570Z,100430.23
2023-04-28T08:53:27.579Z,100433.47
2023-04-28T08:55:58.182Z,100430.61
2023-04-28T08:58:28.451Z,100429.08
2023-04-28T09:00:56.961Z,100426.62
2023-04-28T09:03:27.012Z,100426.36
2023-04-28T09:05:55.416Z,100420.66
2023-04-28T09:08:23.792Z,100413.79
2023-04-28T09:11:15.692Z,100410.17
2023-04-28T09:13:44.396Z,100409.75
2023-04-28T09:16:12.884Z,100402.50
2023-04-28T09:18:56.992Z,100404.58
2023-04-28T09:21:26.930Z,100401.86
2023-04-28T09:23:55.358Z,100398.65
2023-04-28T09:26:25.163Z,100397.77
2023-04-28T09:29:12.929Z,100395.86
2023-04-28T09:31:42.866Z,100393.39
2023-04-28T09:34:14.195Z,100387.08
2023-04-28T09:36:43.205Z,100384.51
2023-04-28T09:39:12.344Z,100383.10
2023-04-28T09:41:44.210Z,100374.42
2023-04-28T09:44:32.925Z,100369.33
2023-04-28T09:47:19.849Z,100371.34
2023-04-28T09:50:00.064Z,100364.04
2023-04-28T09:52:28.570Z,100356.48
2023-04-28T09:54:58.400Z,100358.14
2023-04-28T09:57:33.796Z,100355.32
2023-04-28T10:00:06.857Z,100349.04
2023-04-28T10:10:42.565Z,100335.17
2023-04-28T10:13:12.747Z,100338.30
2023-04-28T10:15:42.608Z,100334.06
2023-04-28T10:18:14.960Z,100328.46
2023-04-28T10:20:48.642Z,100322.98
2023-04-28T10:23:48.466Z,100318.58
2023-04-28T10:26:21.990Z,100312.62
2023-04-28T10:28:52.564Z,100312.39
2023-04-28T10:31:26.370Z,100310.48
2023-04-28T10:34:17.099Z,100304.08
2023-04-28T10:36:51.093Z,100298.95
2023-04-28T10:39:25.147Z,100292.24
2023-04-28T10:41:59.522Z,100286.64
2023-04-28T10:44:28.998Z,100287.11
2023-04-28T10:47:04.161Z,100282.48
2023-04-28T10:50:06.241Z,100279.33
2023-04-28T10:52:59.045Z,100272.55
2023-04-28T10:55:37.653Z,100266.77
2023-04-28T10:58:42.851Z,100266.02
2023-04-28T11:01:27.139Z,100265.91
2023-04-28T11:04:17.079Z,100268.67
2023-04-28T11:06:47.878Z,100267.77
2023-04-28T11:09:17.537Z,100262.37
2023-04-28T11:12:01.477Z,100264.66
2023-04-28T11:14:32.970Z,100262.46
2023-04-28T11:17:11.410Z,100258.37
2023-04-28T11:19:45.985Z,100256.05
2023-04-28T11:22:18.767Z,100254.66
2023-04-28T11:25:02.004Z,100252.27
2023-04-28T11:27:33.499Z,100252.36
2023-04-28T11:30:02.271Z,100249.57
2023-04-28T11:32:35.721Z,100250.00
2023-04-28T11:35:05.405Z,100244.29
2023-04-28T11:37:33.768Z,100237.56
2023-04-28T11:40:12.241Z,100234.39
2023-04-28T11:42:49.914Z,100228.76
2023-04-28T11:45:18.515Z,100221.48
2023-04-28T11:47:48.218Z,100215.65
2023-04-28T11:50:17.713Z,100212.38
2023-04-28T11:52:56.503Z,100208.67
2023-04-28T11:55:24.904Z,100204.71
2023-04-28T11:58:25.307Z,100200.64
2023-04-28T12:01:11.691Z,100202.40
2023-04-28T12:03:47.763Z,100202.48
2023-04-28T12:06:32.709Z,100203.36
2023-04-28T12:09:25.481Z,100202.46
2023-04-28T12:12:03.334Z,100201.00
2023-04-28T12:15:35.499Z,100199.73
2023-04-28T12:18:19.489Z,100197.05
2023-04-28T12:20:49.003Z,100191.14
2023-04-28T12:23:32.322Z,100193.58
2023-04-28T12:26:02.470Z,100193.61
2023-04-28T12:28:41.963Z,100189.55
2023-04-28T12:31:12.074Z,100192.38
2023-04-28T12:33:41.299Z,100189.45
2023-04-28T12:36:09.633Z,100183.75
2023-04-28T12:38:48.021Z,100182.30
2023-04-28T12:41:16.601Z,100178.13
2023-04-28T12:43:44.951Z,100170.05
2023-04-28T12:46:15.677Z,100169.23
2023-04-28T12:48:44.121Z,100166.57
2023-04-28T12:51:12.425Z,100166.39
2023-04-28T12:53:40.849Z,100165.12
2023-04-28T12:56:09.151Z,100162.39
2023-04-28T12:58:38.016Z,100156.05
2023-04-28T13:01:06.892Z,100152.06
2023-04-28T13:03:36.420Z,100147.67
2023-04-28T13:06:06.020Z,100147.62
2023-04-28T13:08:34.369Z,100143.47
2023-04-28T13:11:12.815Z,100138.23
2023-04-28T13:13:51.304Z,100138.77
2023-04-28T13:16:21.251Z,100138.80
2023-04-28T13:18:50.719Z,100139.75
2023-04-28T13:21:19.248Z,100137.48
2023-04-28T13:23:47.620Z,100136.59
2023-04-28T13:26:15.928Z,100134.71
2023-04-28T13:28:46.865Z,100129.17
2023-04-28T13:31:17.314Z,100126.83
2023-04-28T13:33:47.132Z,100123.92
2023-04-28T13:36:16.984Z,100123.11
2023-04-28T13:38:48.866Z,100120.30
2023-04-28T13:41:17.679Z,100118.69
2023-04-28T13:43:45.985Z,100118.05
2023-04-28T13:46:16.612Z,100116.32
2023-04-28T13:51:15.115Z,100108.52
2023-04-28T13:53:43.459Z,100101.60
2023-04-28T13:56:12.365Z,100097.25
2023-04-28T13:58:40.786Z,100096.98
2023-04-28T14:01:09.181Z,100092.38
2023-04-28T14:03:37.766Z,100096.87
2023-04-28T14:06:08.198Z,100094.70
2023-04-28T14:08:36.784Z,100089.96
2023-04-28T14:11:05.140Z,100085.95
2023-04-28T14:13:33.580Z,100085.96
2023-04-28T14:16:02.307Z,100082.88
2023-04-28T14:18:30.960Z,100082.28
2023-04-28T14:21:00.230Z,100080.02
2023-04-28T14:23:28.849Z,100076.23
2023-04-28T14:25:58.143Z,100071.84
2023-04-28T14:28:26.565Z,100072.32
2023-04-28T14:30:55.115Z,100068.02
2023-04-28T14:33:24.324Z,100062.68
2023-04-28T14:35:52.703Z,100060.21
2023-04-28T14:38:21.051Z,100053.16
2023-04-28T14:40:49.391Z,100056.92
2023-04-28T14:43:17.772Z,100054.24
2023-04-28T14:45:49.161Z,100059.42
2023-04-28T14:48:17.612Z,100059.73
2023-04-28T14:50:46.298Z,100052.23
2023-04-28T14:53:14.885Z,100049.17
2023-04-28T14:55:44.515Z,100045.61
2023-04-28T14:58:13.536Z,100042.29
2023-04-28T15:00:42.216Z,100036.06
2023-04-28T15:03:10.702Z,100034.90
2023-04-28T15:05:39.529Z,100031.70
2023-04-28T15:08:33.383Z,100026.05
2023-04-28T15:11:01.796Z,100025.77
2023-04-28T15:13:30.336Z,100019.80
2023-04-28T15:15:58.753Z,100016.48
2023-04-28T15:18:35.963Z,100012.75
2023-04-28T15:21:05.158Z,100009.83
2023-04-28T15:23:33.695Z,100009.14
2023-04-28T15:26:02.568Z,100008.77
2023-04-28T15:28:31.248Z,100004.89
2023-04-28T15:30:59.630Z,100005.48
2023-04-28T15:33:28.818Z,100009.60
2023-04-28T15:35:57.223Z,100007.55
2023-04-28T15:38:26.400Z,100005.03
2023-04-28T15:40:57.160Z,100001.32
2023-04-28T15:43:27.246Z,99999.05
2023-04-28T15:45:57.965Z,99995.56
2023-04-28T15:48:27.327Z,99996.83
2023-04-28T15:50:56.239Z,99999.12
2023-04-28T15:53:28.363Z,99998.00
2023-04-28T15:55:57.743Z,99998.93
2023-04-28T15:58:26.110Z,99995.33
2023-04-28T16:00:54.626Z,99997.27
2023-04-28T16:03:23.530Z,99992.47
2023-04-28T16:05:58.052Z,99992.34
2023-04-28T16:08:33.421Z,99988.23
2023-04-28T16:11:03.790Z,99989.45
2023-04-28T16:13:37.876Z,99986.71
2023-04-28T16:16:12.135Z,99986.13
2023-04-28T16:18:48.198Z,99986.81
2023-04-28T16:21:17.824Z,99980.83
2023-04-28T16:23:46.751Z,99984.31
2023-04-28T16:26:15.209Z,99979.05
2023-04-28T16:28:43.618Z,99977.01
2023-04-28T16:31:12.332Z,99978.89
2023-04-28T16:33:40.787Z,99975.44
2023-04-28T16:36:09.118Z,99968.46
2023-04-28T16:38:37.522Z,99968.18
2023-04-28T16:47:43.481Z,99961.70
2023-04-28T16:50:17.358Z,99957.23
2023-04-28T16:52:45.929Z,99955.40
2023-04-28T16:55:15.295Z,99953.52
2023-04-28T16:57:43.646Z,99951.06
2023-04-28T17:00:12.935Z,99951.77
2023-04-28T17:02:41.613Z,99955.55
2023-04-28T17:05:10.834Z,99957.05
2023-04-28T17:07:39.168Z,99954.17
2023-04-28T17:10:08.369Z,99953.08
2023-04-28T17:12:36.801Z,99950.91
2023-04-28T17:15:08.130Z,99952.63
2023-04-28T17:17:37.518Z,99952.25
2023-04-28T17:20:07.079Z,99953.22
2023-04-28T17:22:35.570Z,99948.97
2023-04-28T17:25:04.735Z,99949.14
2023-04-28T17:27:33.152Z,99951.51
2023-04-28T17:30:01.544Z,99951.71
2023-04-28T17:32:31.069Z,99945.70
2023-04-28T17:34:59.593Z,99945.24
2023-04-28T17:37:28.025Z,99946.45
2023-04-28T17:39:56.979Z,99950.09
2023-04-28T17:42:25.349Z,99949.91
2023-04-28T17:44:53.731Z,99947.96
2023-04-28T17:47:22.055Z,99951.69
2023-04-28T17:49:50.548Z,99947.89
2023-04-28T17:52:19.025Z,99943.45
2023-04-28T17:54:47.730Z,99950.23
2023-04-28T17:57:16.331Z,99946.92
2023-04-28T17:59:46.443Z,99944.81
2023-04-28T18:02:14.853Z,99946.73
2023-04-28T18:04:43.286Z,99946.88
2023-04-28T18:07:11.814Z,99944.72
2023-04-28T18:09:40.178Z,99947.46
2023-04-28T18:12:09.581Z,99946.19
2023-04-28T18:14:38.078Z,99948.86
2023-04-28T18:17:07.003Z,99953.31
2023-04-28T18:19:35.493Z,99954.17
2023-04-28T18:22:03.877Z,99950.61
2023-04-28T18:24:32.270Z,99949.64
2023-04-28T18:27:01.497Z,99949.36
2023-04-28T18:29:29.836Z,99954.95
2023-04-28T18:31:58.231Z,99958.89
2023-04-28T18:34:27.331Z,99957.20
2023-04-28T18:36:55.798Z,99958.52
2023-04-28T18:39:24.640Z,99960.70
2023-04-28T18:41:53.370Z,99959.70
2023-04-28T18:44:21.820Z,99957.98
2023-04-28T18:46:51.454Z,99959.88
2023-04-28T18:49:20.049Z,99958.23
2023-04-28T18:51:48.428Z,99962.27
2023-04-28T18:54:17.378Z,99963.70
2023-04-28T18:56:46.277Z,99966.58
2023-04-28T18:59:14.637Z,99968.33
2023-04-28T19:01:43.017Z,99968.06
2023-04-28T19:04:12.136Z,99967.18
2023-04-28T19:06:40.768Z,99967.83
2023-04-28T19:09:09.152Z,99964.35
2023-04-28T19:11:37.556Z,99964.84
2023-04-28T19:14:06.686Z,99962.52
2023-04-28T19:16:35.355Z,99960.69
2023-04-28T19:19:03.807Z,99957.92
2023-04-28T19:21:43.228Z,99959.09
2023-04-28T19:24:12.702Z,99956.52
2023-04-28T19:26:41.042Z,99959.23
2023-04-28T19:29:09.431Z,99954.20
2023-04-28T19:31:37.790Z,99954.16
2023-04-28T19:34:06.232Z,99952.08
2023-04-28T19:36:35.822Z,99951.86
2023-04-28T19:39:04.172Z,99951.59
2023-04-28T19:41:32.578Z,99950.72
2023-04-28T19:44:01.912Z,99948.98
2023-04-28T19:46:30.295Z,99952.10
2023-04-28T19:48:58.750Z,99953.67
2023-04-28T19:51:27.964Z,99957.52
2023-04-28T19:53:56.340Z,99957.40
2023-04-28T19:56:24.752Z,99958.02
2023-04-28T19:58:54.102Z,99956.44
2023-04-28T20:01:23.129Z,99954.39
2023-04-28T20:03:52.021Z,99956.70
2023-04-28T20:06:20.551Z,99953.34
2023-04-28T20:08:49.162Z,99953.75
2023-04-28T20:11:17.632Z,99954.16
2023-04-28T20:13:45.988Z,99956.61
2023-04-28T20:16:14.408Z,99954.10
2023-04-28T20:18:42.857Z,99957.34
2023-04-28T20:21:11.457Z,99956.95
2023-04-28T20:23:39.790Z,99957.60
2023-04-28T20:26:16.940Z,99956.02
2023-04-28T20:28:47.578Z,99957.77
2023-04-28T20:31:16.220Z,99958.02
2023-04-28T20:33:44.651Z,99957.95
2023-04-28T20:36:13.019Z,99954.57
2023-04-28T20:38:43.435Z,99957.46
2023-04-28T20:41:12.245Z,99950.93
2023-04-28T20:43:41.618Z,99955.10
2023-04-28T20:46:10.925Z,99953.26
2023-04-28T20:48:40.400Z,99956.49
2023-04-28T20:51:08.811Z,99957.63
2023-04-28T20:53:39.712Z,99954.23
2023-04-28T20:56:08.475Z,99951.36
2023-04-28T20:58:37.063Z,99949.21
2023-04-28T21:01:05.509Z,99947.46
2023-04-28T21:03:34.513Z,99945.73
2023-04-28T21:06:03.954Z,99947.30
2023-04-28T21:08:32.397Z,99945.37
2023-04-28T21:11:00.756Z,99943.40
2023-04-28T21:13:29.128Z,99939.84
2023-04-28T21:15:57.572Z,99942.73
2023-04-28T21:18:25.904Z,99942.14
2023-04-28T21:20:54.737Z,99939.23
2023-04-28T21:23:23.203Z,99937.67
2023-04-28T21:25:52.296Z,99936.64
2023-04-28T21:28:20.654Z,99935.59
2023-04-28T21:30:52.939Z,99932.19
2023-04-28T21:33:23.778Z,99932.77
2023-04-28T21:35:52.168Z,99932.08
2023-04-28T21:38:20.653Z,99933.92
2023-04-28T21:40:49.150Z,99929.48
2023-04-28T21:43:17.571Z,99923.50
2023-04-28T21:45:45.996Z,99928.20
2023-04-28T21:48:14.490Z,99930.92
2023-04-28T21:50:42.854Z,99928.64
2023-04-28T21:53:11.461Z,99926.55
2023-04-28T21:55:40.015Z,99927.33
2023-04-28T21:58:08.491Z,99931.29
2023-04-28T22:00:43.610Z,99935.67
2023-04-28T22:03:13.750Z,99930.95
2023-04-28T22:05:43.555Z,99934.21
2023-04-28T22:08:13.220Z,99934.50
2023-04-28T22:10:44.018Z,99931.92
2023-04-28T22:13:13.515Z,99930.88
2023-04-28T22:15:42.594Z,99928.52
2023-04-28T22:18:11.180Z,99924.65
2023-04-28T22:20:40.309Z,99919.56
2023-04-28T22:23:08.631Z,99921.04
2023-04-28T22:25:37.013Z,99914.69
2023-04-28T22:28:05.361Z,99909.55
2023-04-28T22:30:33.710Z,99906.39
2023-04-28T22:33:02.119Z,99901.98
2023-04-28T22:35:30.497Z,99900.23
2023-04-28T22:37:58.897Z,99898.56
2023-04-28T22:40:27.802Z,99897.71
2023-04-28T22:42:56.325Z,99895.30
2023-04-28T22:45:24.687Z,99894.23
2023-04-28T22:47:53.047Z,99895.61
2023-04-28T22:50:21.762Z,99892.26
2023-04-28T22:52:50.375Z,99891.32
2023-04-28T22:55:19.450Z,99892.31
2023-04-28T22:57:47.839Z,99894.39
2023-04-28T23:00:16.623Z,99893.31
2023-04-28T23:02:45.312Z,99891.30
2023-04-28T23:05:14.023Z,99889.66
2023-04-28T23:07:42.361Z,99889.66
2023-04-28T23:10:14.287Z,99889.33
2023-04-28T23:12:43.500Z,99887.61
2023-04-28T23:15:11.945Z,99887.56
2023-04-28T23:17:42.021Z,99887.27
2023-04-28T23:20:11.167Z,99889.66
2023-04-28T23:22:39.489Z,99888.08
2023-04-28T23:25:08.771Z,99888.58
2023-04-28T23:27:37.256Z,99892.02
2023-04-28T23:30:06.455Z,99887.11
2023-04-28T23:32:34.803Z,99888.23
2023-04-28T23:35:03.371Z,99884.79
2023-04-28T23:37:31.721Z,99879.17
2023-04-28T23:39:59.993Z,99877.20
2023-04-28T23:42:29.013Z,99871.07
2023-04-28T23:44:58.274Z,99864.32
2023-04-28T23:47:26.800Z,99856.73
2023-04-28T23:49:55.224Z,99855.66
2023-04-28T23:52:23.682Z,99849.68
2023-04-28T23:54:51.979Z,99848.74
2023-04-28T23:57:20.296Z,99845.01
2023-04-28T23:59:48.885Z,99845.40
